Our Location

Trim Flying Club is based at Weston Airport (EIWT).

Address

Dublin Weston Airport,
Backweston,
Leixlip,
County Kildare

Contact information for Weston

Phone: +353 (01) 6217300
Email: ops@westonairport.com
 
You can read more information on Weston from the IAA's aeronautical information package here.
  • Casement Aerodrome METER/TAF

    Casement Aerodrome is just south of Weston and has a regularly updated METAR and TAF which you can find below.

    Available data for EIME from the past 2 hours
    CASEMENT (MIL)
    Metar
    EIME 211800Z 27015KT 9999 FEW018 SCT040 11/05 Q1013

    18:00 UTC

    Wind: 270° 15kt

    Visibility: 9999 m

    Sky: FEW 1800 ft

    Temp: 11 deg C / 51.8 deg F

    Dewpoint: 5 deg C / 41 deg F

    Pressure: 1013 hPa

    TAF
    TAF EIME 211700Z 2118/2203 27015KT 9999 FEW015 SCT030 BECMG 2118/2120 26010KT